Summersville, WV (26651)

11:09 PM EDT on July 30, 2016 (GMT -0400)
Summersville | | Change Station

Elev 1932 ft 38.30 °N, 80.84 °W | Updated 2 seconds ago

Clear
Clear
66.6 °F
Feels Like 66.6 °F
N
0.0
Wind Variable Wind from NE

Today
High -- | Low -- °F
--% Chance of Precip.
Yesterday
High -- | Low -- °F
Precip. -- in
Pressure 30.01 in
Visibility 10.0 miles
Clouds Clear
Dew Point 64 °F
Humidity 90%
Rainfall 0.00 in
Snow Depth Not available.
6:24 AM 8:34 PM
Waning Crescent, 9% visible
METAR KBKW 310251Z AUTO 11003KT 10SM CLR 20/18 A3010 RMK AO2 SLP160 60000 T02000178 53012 CHINO RWY19 $
Pressure 30.01 in
Visibility 10.0 miles
Clouds Clear
Dew Point 64 °F
Humidity 90%
Rainfall 0.00 in
Snow Depth Not available.
6:24 AM 8:34 PM
Waning Crescent, 9% visible
METAR KBKW 310251Z AUTO 11003KT 10SM CLR 20/18 A3010 RMK AO2 SLP160 60000 T02000178 53012 CHINO RWY19 $

10-Day Weather Forecast

Almanac

Astronomy

Jul. 30, 2016 Rise Set
Actual Time
Civil Twilight
Nautical Twilight
Astronomical Twilight
Moon
Length of Visible Light
Length of Day
Tomorrow will be .
, % of the Moon is Illuminated

Today's Extremes

State Highs State Lows

Community

WunderPhotos

Upload Photos

1,928,725 photos uploaded!

WunderBlog® & News

Nearby

Air Quality

  Air Quality AQ Index Pollutant
Not available.

Snow Depth

Station Depth Elevation

Earthquake Activity

City Distance Mag. Time & Date
Minimum magnitude displayed is 2.5.

Coastal Water Temperatures

Place Temperature

Stations

Nearby Weather Stations

Station Location Temp. Windchill Dew Point Humidity Wind Precip. Elev Updated Type
                   

Watches & Warnings

There are currently no watches in effect.